Time;durP1;ratioP1;P1;durP2;ratioP2;P2;SDS_P1;SDS_P2;PMS_P1;PMS_P2;Temp;Humidity;BMP_temperature;BMP_pressure;BME280_temperature;BME280_humidity;BME280_pressure;Samples;Min_cycle;Max_cycle;Signal;HPM_P1;HPM_P2
2021/09/11 00:00:07;;;;;;;2.28;1.33;;;;;;;13.21;85.76;91050.03;4961602;28;20030;-90
2021/09/11 00:02:32;;;;;;;2.78;2.10;;;;;;;13.10;87.55;91049.81;4945522;28;20094;-89
2021/09/11 00:04:58;;;;;;;6.20;3.20;;;;;;;13.03;88.10;91048.88;4945057;28;20093;-90
2021/09/11 00:07:23;;;;;;;5.18;2.47;;;;;;;13.20;87.65;91043.31;4947847;28;20014;-90
2021/09/11 00:09:49;;;;;;;5.07;2.25;;;;;;;13.23;87.77;91040.00;4960593;28;20034;-90
2021/09/11 00:12:14;;;;;;;5.30;2.05;;;;;;;13.21;88.12;91036.97;4973201;28;20030;-90
2021/09/11 00:14:39;;;;;;;4.55;2.13;;;;;;;13.04;88.48;91034.69;4963502;28;20019;-91
2021/09/11 00:17:05;;;;;;;3.85;1.83;;;;;;;13.00;88.98;91044.34;4963879;28;20018;-91
2021/09/11 00:19:31;;;;;;;3.00;1.80;;;;;;;12.98;89.10;91041.31;4964185;28;20041;-90
2021/09/11 00:21:56;;;;;;;2.40;2.00;;;;;;;12.90;89.78;91041.16;4963674;28;20022;-90
2021/09/11 00:24:21;;;;;;;2.85;1.83;;;;;;;12.90;89.37;91035.91;4980187;28;20478;-90
2021/09/11 00:26:47;;;;;;;3.08;1.80;;;;;;;12.95;89.70;91041.97;4960892;28;20026;-90
2021/09/11 00:29:12;;;;;;;5.60;2.22;;;;;;;12.86;89.67;91042.94;4944768;28;20030;-90
2021/09/11 00:31:38;;;;;;;3.42;1.95;;;;;;;12.90;89.20;91046.38;4944633;28;20019;-90
2021/09/11 00:34:03;;;;;;;3.25;2.10;;;;;;;12.94;89.69;91043.09;4972017;28;20030;-91
2021/09/11 00:36:29;;;;;;;2.88;1.90;;;;;;;12.98;89.91;91042.06;4959934;28;20034;-91
2021/09/11 00:38:54;;;;;;;3.22;2.17;;;;;;;12.92;90.39;91036.31;4944057;28;20023;-90
2021/09/11 00:41:20;;;;;;;2.60;1.67;;;;;;;12.98;90.13;91038.69;4979043;28;20037;-90
2021/09/11 00:43:49;;;;;;;3.15;2.10;;;;;;;12.86;90.41;91037.69;4963034;28;20050;-90
2021/09/11 00:46:15;;;;;;;2.28;1.60;;;;;;;12.94;90.04;91040.47;4960355;28;20034;-90
2021/09/11 00:48:40;;;;;;;4.45;2.17;;;;;;;13.15;89.06;91028.63;4944140;28;20031;-91
2021/09/11 00:51:06;;;;;;;3.20;1.70;;;;;;;13.06;89.37;91037.75;4944551;28;20130;-90
2021/09/11 00:53:31;;;;;;;3.50;1.92;;;;;;;13.06;89.27;91042.97;4959925;28;20398;-90
2021/09/11 00:55:57;;;;;;;5.07;2.20;;;;;;;13.08;89.16;91031.09;4962754;28;20027;-91
2021/09/11 00:58:23;;;;;;;4.60;2.10;;;;;;;13.08;88.64;91030.34;4959294;28;20150;-90
2021/09/11 01:00:48;;;;;;;4.10;1.92;;;;;;;13.01;89.50;91038.03;4943939;28;20034;-90
2021/09/11 01:03:13;;;;;;;3.13;1.98;;;;;;;12.99;89.61;91038.34;4960039;28;20045;-90
2021/09/11 01:05:39;;;;;;;4.40;1.67;;;;;;;12.95;90.10;91036.75;4954451;28;20034;-90
2021/09/11 01:08:05;;;;;;;3.67;2.35;;;;;;;12.99;89.72;91040.22;4963105;28;20030;-91
2021/09/11 01:10:30;;;;;;;3.50;2.22;;;;;;;12.95;88.99;91040.13;4963856;28;20038;-90
2021/09/11 01:12:56;;;;;;;2.97;2.20;;;;;;;13.10;88.82;91036.72;4960003;28;20027;-90
2021/09/11 01:15:31;;;;;;;3.88;2.22;;;;;;;12.89;89.93;91034.38;4979195;28;20025;-90
2021/09/11 01:17:57;;;;;;;4.75;2.38;;;;;;;12.92;91.03;91036.31;4975055;28;20027;-91
2021/09/11 01:20:22;;;;;;;4.75;2.22;;;;;;;13.07;89.74;91036.66;4959736;28;20030;-89
2021/09/11 01:22:48;;;;;;;3.92;2.30;;;;;;;13.01;89.83;91046.63;4943650;28;20022;-90
2021/09/11 01:25:13;;;;;;;4.35;2.40;;;;;;;12.98;90.15;91039.44;4959392;28;20391;-89
2021/09/11 01:27:38;;;;;;;3.97;2.63;;;;;;;12.95;90.04;91037.50;4978816;28;20474;-90
2021/09/11 01:30:06;;;;;;;6.82;2.78;;;;;;;13.05;89.88;91042.22;4978266;28;20592;-90
2021/09/11 01:32:32;;;;;;;3.25;2.33;;;;;;;13.06;89.84;91037.75;4962813;28;20030;-90
2021/09/11 01:34:57;;;;;;;3.75;2.60;;;;;;;12.99;89.95;91038.34;4958576;28;20042;-90
2021/09/11 01:37:23;;;;;;;4.45;2.80;;;;;;;13.02;89.82;91026.44;4972330;28;20030;-90
2021/09/11 01:39:49;;;;;;;5.38;2.97;;;;;;;13.13;88.08;91032.69;4962356;28;20045;-90
2021/09/11 01:42:19;;;;;;;5.95;2.60;;;;;;;13.07;89.34;91049.72;4971058;28;20026;-91
2021/09/11 01:44:48;;;;;;;4.93;2.75;;;;;;;13.16;88.86;91026.78;4951019;28;20037;-90
2021/09/11 01:47:14;;;;;;;5.38;3.00;;;;;;;12.99;90.00;91034.97;4961975;28;20049;-89
2021/09/11 01:49:40;;;;;;;4.63;2.67;;;;;;;12.90;90.57;91035.91;4956337;28;20375;-90
2021/09/11 01:52:06;;;;;;;5.65;3.22;;;;;;;12.94;90.03;91032.63;4958815;28;20089;-90
2021/09/11 01:54:31;;;;;;;4.47;2.95;;;;;;;12.90;90.00;91033.31;4943306;28;20061;-90
2021/09/11 01:56:57;;;;;;;4.93;3.25;;;;;;;12.92;90.22;91038.94;4946502;28;20490;-90
2021/09/11 01:59:22;;;;;;;4.35;2.92;;;;;;;12.89;90.52;91039.59;4962201;28;20045;-90
2021/09/11 02:01:48;;;;;;;5.70;3.00;;;;;;;12.83;90.39;91035.75;4961715;28;20027;-90
2021/09/11 02:04:13;;;;;;;4.10;2.63;;;;;;;12.91;90.17;91036.69;5007115;23;20039;-85
2021/09/11 02:06:38;;;;;;;4.03;2.90;;;;;;;12.94;89.64;91046.47;4973352;28;20045;-86
2021/09/11 02:09:04;;;;;;;5.75;3.50;;;;;;;13.05;87.32;91050.06;4975967;28;20034;-88
2021/09/11 02:11:29;;;;;;;5.13;3.47;;;;;;;12.98;87.90;91041.31;4977458;28;20025;-88
2021/09/11 02:13:55;;;;;;;6.55;3.63;;;;;;;12.93;87.70;91044.94;4977227;28;20022;-87
2021/09/11 02:16:20;;;;;;;5.88;3.20;;;;;;;12.98;87.98;91039.44;4976975;28;20027;-87
2021/09/11 02:18:45;;;;;;;7.68;3.70;;;;;;;12.88;88.56;91037.34;4977156;28;20088;-88
2021/09/11 02:21:11;;;;;;;6.63;3.67;;;;;;;12.98;88.05;91039.44;4967025;28;20018;-87
2021/09/11 02:23:36;;;;;;;7.90;3.58;;;;;;;12.88;88.41;91045.94;4977144;28;20034;-87
2021/09/11 02:26:01;;;;;;;7.40;4.18;;;;;;;12.83;88.96;91040.97;4960237;28;20470;-88
2021/09/11 02:28:27;;;;;;;5.60;3.42;;;;;;;12.82;88.63;91043.91;4960793;28;20061;-87
2021/09/11 02:30:52;;;;;;;6.65;3.40;;;;;;;12.92;87.97;91043.41;4960648;28;20031;-87
2021/09/11 02:33:18;;;;;;;8.00;3.45;;;;;;;12.86;87.30;91040.31;4989750;28;20375;-88
2021/09/11 02:35:43;;;;;;;6.25;3.25;;;;;;;13.00;86.49;91039.09;4984906;28;20020;-89
2021/09/11 02:38:08;;;;;;;6.65;3.50;;;;;;;12.93;87.29;91044.94;4997935;28;20022;-89
2021/09/11 02:40:34;;;;;;;5.95;3.78;;;;;;;12.95;87.77;91039.38;4990810;28;20018;-88
2021/09/11 02:42:59;;;;;;;7.30;3.50;;;;;;;13.02;87.31;91048.13;4992713;28;20429;-87
2021/09/11 02:45:25;;;;;;;6.95;3.70;;;;;;;12.96;87.89;91044.25;4976363;28;20037;-88
2021/09/11 02:47:50;;;;;;;6.30;3.22;;;;;;;12.94;88.05;91043.84;4992239;28;20030;-88
2021/09/11 02:50:15;;;;;;;7.97;3.85;;;;;;;12.89;88.59;91046.69;4960292;28;20371;-87
2021/09/11 02:52:41;;;;;;;5.70;3.38;;;;;;;12.92;88.48;91038.94;4960310;28;20037;-87
2021/09/11 02:55:07;;;;;;;8.07;3.53;;;;;;;12.88;88.46;91045.94;4976480;28;20019;-87
2021/09/11 02:57:32;;;;;;;5.95;3.38;;;;;;;12.88;88.66;91037.34;4975998;28;20030;-88
2021/09/11 02:59:58;;;;;;;8.88;4.22;;;;;;;12.80;89.16;91035.66;4976317;28;20037;-88
2021/09/11 03:02:23;;;;;;;5.68;3.90;;;;;;;12.76;89.73;91030.34;4991718;28;20514;-88
2021/09/11 03:04:49;;;;;;;6.30;3.60;;;;;;;12.84;88.75;91029.41;4975942;28;20027;-88
2021/09/11 03:07:14;;;;;;;5.97;3.90;;;;;;;12.75;89.62;91031.44;4991120;28;20027;-88
2021/09/11 03:09:39;;;;;;;5.95;3.60;;;;;;;12.82;89.23;91026.38;4956936;28;20027;-87
2021/09/11 03:12:06;;;;;;;5.93;3.60;;;;;;;12.80;89.37;91027.81;4956892;28;20027;-87
2021/09/11 03:14:31;;;;;;;7.70;3.75;;;;;;;12.69;89.83;91032.81;4973117;28;20081;-87
2021/09/11 03:16:56;;;;;;;9.85;4.10;;;;;;;12.67;89.81;91037.59;4973060;28;20031;-87
2021/09/11 03:19:22;;;;;;;7.45;3.97;;;;;;;12.54;90.15;91030.91;4989060;28;20495;-87
2021/09/11 03:21:47;;;;;;;5.32;3.50;;;;;;;12.60;90.30;91032.19;4972759;28;20022;-88
2021/09/11 03:24:13;;;;;;;5.90;3.78;;;;;;;12.60;89.67;91035.56;4972748;28;20023;-87
2021/09/11 03:26:38;;;;;;;6.53;3.47;;;;;;;12.56;89.64;91028.75;4999459;28;20043;-86
2021/09/11 03:29:03;;;;;;;7.45;3.85;;;;;;;12.54;89.89;91023.09;4972752;28;20031;-86
2021/09/11 03:31:29;;;;;;;6.75;3.50;;;;;;;12.52;89.85;91023.44;4972981;28;20027;-88
2021/09/11 03:33:54;;;;;;;9.68;3.70;;;;;;;12.56;88.94;91029.50;4972656;28;20026;-87
2021/09/11 03:36:20;;;;;;;4.13;3.20;;;;;;;12.48;88.98;91024.44;4973268;28;20226;-88
2021/09/11 03:38:45;;;;;;;5.15;3.70;;;;;;;12.35;89.78;91026.34;4988861;28;20023;-87
2021/09/11 03:41:11;;;;;;;7.03;3.30;;;;;;;12.24;89.67;91026.09;4988999;28;20034;-87
2021/09/11 03:43:36;;;;;;;6.85;3.40;;;;;;;12.38;89.66;91028.31;4973274;28;20056;-87
2021/09/11 03:46:02;;;;;;;5.90;3.80;;;;;;;12.35;89.28;91031.59;4972573;28;20023;-87
2021/09/11 03:48:27;;;;;;;5.22;3.33;;;;;;;12.28;89.36;91032.16;4973043;28;20546;-87
2021/09/11 03:50:53;;;;;;;5.25;3.58;;;;;;;12.47;88.45;91033.38;5004228;28;20038;-87
2021/09/11 03:53:18;;;;;;;6.05;3.80;;;;;;;12.19;89.08;91026.31;4976054;28;20033;-88
2021/09/11 03:55:43;;;;;;;6.68;3.08;;;;;;;12.27;88.87;91020.19;4959742;28;20019;-88
2021/09/11 03:58:09;;;;;;;6.88;3.85;;;;;;;12.37;87.40;91024.94;4959625;28;20371;-87
2021/09/11 04:00:35;;;;;;;4.68;2.97;;;;;;;12.32;87.63;91024.41;4952470;28;20449;-87
2021/09/11 04:03:01;;;;;;;5.95;3.30;;;;;;;12.15;88.28;91015.03;4957874;28;20034;-87
2021/09/11 04:05:26;;;;;;;4.90;3.17;;;;;;;12.04;88.74;91024.44;4965586;28;20022;-91
2021/09/11 04:07:52;;;;;;;7.20;3.28;;;;;;;11.99;88.84;91022.09;4979870;28;20035;-91
2021/09/11 04:10:17;;;;;;;5.78;3.78;;;;;;;11.89;89.10;91024.06;4977981;28;20023;-87
2021/09/11 04:12:42;;;;;;;4.55;3.10;;;;;;;11.85;89.52;91030.28;4942140;28;20026;-87
2021/09/11 04:15:08;;;;;;;6.57;3.42;;;;;;;12.02;88.17;91031.88;4957566;28;20019;-87
2021/09/11 04:17:34;;;;;;;7.60;3.60;;;;;;;11.92;88.51;91026.00;4956994;28;20089;-87
2021/09/11 04:19:59;;;;;;;4.25;2.95;;;;;;;11.85;88.65;91038.88;4973023;28;20023;-88
2021/09/11 04:22:24;;;;;;;8.10;3.75;;;;;;;11.74;89.12;91040.41;4989521;28;20029;-87
2021/09/11 04:24:50;;;;;;;9.50;3.40;;;;;;;11.69;90.14;91045.84;4973898;28;20027;-87
2021/09/11 04:27:15;;;;;;;7.03;3.67;;;;;;;11.62;89.72;91043.03;4958099;28;20542;-87
2021/09/11 04:29:41;;;;;;;6.05;3.30;;;;;;;11.54;89.16;91052.53;4988892;28;20031;-87
2021/09/11 04:32:06;;;;;;;4.80;2.85;;;;;;;11.55;88.85;91048.06;4957717;28;20023;-87
2021/09/11 04:34:32;;;;;;;7.15;3.38;;;;;;;11.45;89.12;91057.13;4960278;28;20029;-87
2021/09/11 04:36:57;;;;;;;5.05;3.05;;;;;;;11.44;89.85;91051.13;4959968;28;20034;-88
2021/09/11 04:39:22;;;;;;;4.75;3.55;;;;;;;11.41;89.70;91056.25;4976282;28;20049;-87
2021/09/11 04:41:48;;;;;;;5.50;2.92;;;;;;;11.37;89.83;91047.56;4977135;28;20074;-88
2021/09/11 04:44:13;;;;;;;6.75;3.22;;;;;;;11.32;89.39;91053.78;4999785;28;20037;-87
2021/09/11 04:46:39;;;;;;;7.22;3.58;;;;;;;11.23;90.12;91055.72;4967605;28;20410;-87
2021/09/11 04:49:04;;;;;;;5.18;3.42;;;;;;;11.28;90.14;91063.34;4978817;28;20030;-88
2021/09/11 04:51:29;;;;;;;4.63;3.15;;;;;;;11.21;89.86;91060.53;4979010;28;20026;-87
2021/09/11 04:53:55;;;;;;;5.47;3.50;;;;;;;11.21;90.25;91060.53;4978825;28;20450;-87
2021/09/11 04:56:20;;;;;;;6.35;3.33;;;;;;;11.24;89.86;91057.25;4978272;28;20470;-88
2021/09/11 04:58:46;;;;;;;6.10;3.33;;;;;;;11.21;89.96;91060.53;4964321;28;20050;-87
2021/09/11 05:01:11;;;;;;;8.95;3.80;;;;;;;11.12;90.46;91065.09;4975529;28;20031;-87
2021/09/11 05:03:36;;;;;;;5.38;3.60;;;;;;;11.06;90.58;91058.56;4959448;28;20030;-87
2021/09/11 05:06:02;;;;;;;8.93;3.50;;;;;;;10.97;90.21;91056.84;4975455;28;20030;-87
2021/09/11 05:08:27;;;;;;;7.88;4.32;;;;;;;11.08;91.03;91064.22;4959138;28;20027;-87
2021/09/11 05:10:53;;;;;;;7.15;3.45;;;;;;;11.12;90.44;91065.09;4974596;28;20022;-87
2021/09/11 05:13:18;;;;;;;5.97;3.17;;;;;;;11.08;90.51;91072.03;4958532;28;20027;-87
2021/09/11 05:15:43;;;;;;;7.97;4.43;;;;;;;10.99;90.40;91072.91;4973700;28;20089;-87
2021/09/11 05:18:09;;;;;;;7.20;3.72;;;;;;;11.30;90.03;91066.38;4961535;28;20026;-87
2021/09/11 05:20:34;;;;;;;6.80;3.85;;;;;;;11.24;89.87;91070.31;4977648;28;20056;-86
2021/09/11 05:23:00;;;;;;;7.47;3.80;;;;;;;11.20;89.62;91072.03;5002330;28;20038;-87
2021/09/11 05:25:25;;;;;;;5.00;3.40;;;;;;;11.14;90.52;91078.56;4958430;28;20035;-87
2021/09/11 05:27:51;;;;;;;6.35;3.63;;;;;;;11.07;90.71;91081.72;4958662;28;20023;-88
2021/09/11 05:30:18;;;;;;;6.82;3.78;;;;;;;11.12;90.74;91075.53;4960085;28;20050;-87
2021/09/11 05:32:43;;;;;;;9.82;4.28;;;;;;;11.14;90.55;91070.75;4974486;28;20042;-87
2021/09/11 05:35:09;;;;;;;6.47;4.00;;;;;;;11.10;90.99;91064.66;4959346;28;20015;-87
2021/09/11 05:37:34;;;;;;;7.00;4.20;;;;;;;11.20;90.40;91069.41;4958311;28;20023;-86
2021/09/11 05:40:00;;;;;;;5.70;3.53;;;;;;;11.23;90.33;91074.00;4974710;28;20023;-87
2021/09/11 05:42:25;;;;;;;8.85;3.70;;;;;;;11.27;90.51;91081.91;4967834;28;20085;-87
2021/09/11 05:44:51;;;;;;;4.28;3.17;;;;;;;11.46;89.90;91080.28;4958533;28;20077;-87
2021/09/11 05:47:16;;;;;;;9.07;4.57;;;;;;;11.52;90.35;91080.03;4990748;28;20029;-86
2021/09/11 05:49:41;;;;;;;7.32;3.80;;;;;;;11.68;90.14;91076.44;4958728;28;20062;-87
2021/09/11 05:52:07;;;;;;;5.55;3.95;;;;;;;11.70;90.47;91091.78;4958865;28;20034;-86
2021/09/11 05:54:32;;;;;;;11.70;4.05;;;;;;;11.75;91.05;91088.16;4960327;28;20026;-90
2021/09/11 05:56:58;;;;;;;7.60;4.15;;;;;;;11.84;91.45;91079.16;5000499;28;20065;-88
2021/09/11 05:59:23;;;;;;;6.93;4.65;;;;;;;11.87;91.85;91086.31;4997267;28;20054;-90
2021/09/11 06:01:48;;;;;;;7.20;4.32;;;;;;;11.96;91.16;91084.31;4962872;28;20034;-87
2021/09/11 06:04:14;;;;;;;5.72;3.92;;;;;;;12.04;90.64;91084.50;4973686;28;20027;-87
2021/09/11 06:06:41;;;;;;;8.50;4.13;;;;;;;12.10;90.35;91088.41;4973549;28;20042;-87
2021/09/11 06:09:06;;;;;;;7.47;4.00;;;;;;;12.33;89.50;91089.41;4971927;28;20032;-87
2021/09/11 06:11:32;;;;;;;7.22;4.30;;;;;;;12.32;89.83;91081.91;4960914;28;20034;-87
2021/09/11 06:13:57;;;;;;;6.60;3.72;;;;;;;12.37;89.50;91087.66;4960655;28;20037;-88
2021/09/11 06:16:22;;;;;;;8.15;4.28;;;;;;;12.44;90.15;91087.84;4977065;28;20026;-87
2021/09/11 06:18:48;;;;;;;7.45;4.57;;;;;;;12.51;90.62;91091.72;4960155;28;20057;-87
2021/09/11 06:21:13;;;;;;;7.15;4.50;;;;;;;12.53;90.15;91081.69;4976928;28;20092;-87
2021/09/11 06:23:39;;;;;;;10.40;4.38;;;;;;;12.60;89.12;91085.25;4960319;28;20030;-88
2021/09/11 06:26:05;;;;;;;6.32;4.00;;;;;;;12.72;89.58;91081.81;4960475;28;20026;-86
2021/09/11 06:28:30;;;;;;;10.50;4.30;;;;;;;12.80;88.95;91083.50;4960277;28;20033;-87
2021/09/11 06:30:56;;;;;;;7.57;4.20;;;;;;;12.90;88.76;91080.38;4976485;28;20026;-87
2021/09/11 06:33:21;;;;;;;5.40;4.07;;;;;;;12.92;90.01;91083.41;4960633;28;20026;-86
2021/09/11 06:35:47;;;;;;;6.53;4.22;;;;;;;13.05;89.68;91084.09;4965993;28;20026;-87
2021/09/11 06:38:12;;;;;;;6.57;4.00;;;;;;;13.05;89.68;91078.09;4961613;28;20033;-87
2021/09/11 06:40:38;;;;;;;7.75;4.05;;;;;;;13.12;89.47;91084.25;4974686;28;20397;-87
2021/09/11 06:43:03;;;;;;;5.70;3.75;;;;;;;13.06;88.15;91082.22;4982421;28;20027;-86
2021/09/11 06:45:28;;;;;;;7.13;4.13;;;;;;;13.30;88.33;91082.06;4988906;28;20042;-88
2021/09/11 06:47:54;;;;;;;5.93;4.28;;;;;;;13.23;89.62;91084.50;4957771;28;20022;-87
2021/09/11 06:50:19;;;;;;;6.78;3.45;;;;;;;13.26;87.79;91086.47;4973487;28;20030;-87
2021/09/11 06:52:45;;;;;;;6.30;4.25;;;;;;;13.34;86.83;91084.75;4974258;28;20027;-87
2021/09/11 06:55:10;;;;;;;5.38;3.50;;;;;;;13.36;87.22;91088.56;4972543;28;20022;-87
2021/09/11 06:57:36;;;;;;;6.70;3.90;;;;;;;13.44;87.80;91084.25;4974838;28;20031;-87
2021/09/11 07:00:03;;;;;;;6.57;3.67;;;;;;;13.56;87.87;91083.38;4960792;28;20030;-87
2021/09/11 07:02:28;;;;;;;5.05;3.60;;;;;;;13.69;85.16;91086.66;4961051;28;20482;-86
2021/09/11 07:04:54;;;;;;;5.78;3.80;;;;;;;13.77;85.71;91089.06;4976427;28;20029;-87
2021/09/11 07:07:19;;;;;;;9.32;4.25;;;;;;;13.85;86.55;91088.13;4959545;28;20026;-87
2021/09/11 07:09:44;;;;;;;5.78;3.95;;;;;;;13.95;86.82;91091.28;4975727;28;20061;-87
2021/09/11 07:12:10;;;;;;;5.35;3.28;;;;;;;14.17;83.87;91081.97;4976056;28;20027;-87
2021/09/11 07:14:35;;;;;;;7.47;3.30;;;;;;;14.32;83.89;91089.78;4975730;28;20030;-87
2021/09/11 07:17:01;;;;;;;7.60;2.95;;;;;;;14.42;81.07;91077.22;4976087;28;20100;-86
2021/09/11 07:19:28;;;;;;;5.10;3.30;;;;;;;14.42;80.68;91082.47;4959048;28;20042;-86
2021/09/11 07:21:56;;;;;;;6.95;3.42;;;;;;;14.54;80.77;91084.97;4960213;28;20032;-86
2021/09/11 07:24:22;;;;;;;6.25;3.22;;;;;;;14.59;80.08;91076.78;4976133;28;20030;-87
2021/09/11 07:26:48;;;;;;;7.18;2.97;;;;;;;14.59;80.10;91084.66;4972096;28;20118;-86
2021/09/11 07:29:13;;;;;;;6.63;2.92;;;;;;;14.76;80.87;91080.84;4985734;28;20061;-87
2021/09/11 07:31:39;;;;;;;5.57;3.22;;;;;;;14.73;80.09;91086.78;4975706;28;20026;-86
2021/09/11 07:34:04;;;;;;;4.95;2.90;;;;;;;14.74;79.25;91083.81;4959334;28;20538;-85
2021/09/11 07:36:29;;;;;;;6.10;2.95;;;;;;;14.80;79.05;91085.03;4959443;28;20022;-86
2021/09/11 07:38:55;;;;;;;4.90;3.20;;;;;;;14.89;78.60;91086.69;4975960;28;20022;-86
2021/09/11 07:41:20;;;;;;;5.35;3.05;;;;;;;15.11;77.82;91095.66;4997320;28;20030;-89
2021/09/11 07:43:46;;;;;;;6.25;2.88;;;;;;;15.03;76.74;91081.69;5001813;28;20018;-88
2021/09/11 07:46:11;;;;;;;5.50;2.72;;;;;;;15.33;75.88;91089.63;4987921;28;20021;-86
2021/09/11 07:48:36;;;;;;;3.40;2.50;;;;;;;15.43;74.39;91094.28;4982319;28;20030;-86
2021/09/11 07:51:02;;;;;;;5.53;3.08;;;;;;;15.50;74.83;91091.00;4992388;28;20030;-87
2021/09/11 07:53:27;;;;;;;5.60;2.97;;;;;;;15.60;76.30;91095.66;4993367;28;20026;-87
2021/09/11 07:55:53;;;;;;;5.65;2.78;;;;;;;15.49;77.16;91100.75;4960265;28;20034;-87
2021/09/11 07:58:18;;;;;;;6.50;2.92;;;;;;;15.64;76.09;91104.34;4968730;28;20027;-87
2021/09/11 08:00:43;;;;;;;4.85;2.50;;;;;;;15.59;75.54;91104.66;4975981;28;20018;-87
2021/09/11 08:05:42;;;;;;;5.57;3.05;;;;;;;15.89;74.24;91099.47;5010118;28;19921;-91
2021/09/11 08:08:07;;;;;;;6.28;2.90;;;;;;;15.88;75.81;91100.59;4974888;28;20038;-89
2021/09/11 08:10:32;;;;;;;5.20;2.60;;;;;;;16.08;74.66;91103.06;4946904;28;20022;-90
2021/09/11 08:12:58;;;;;;;5.22;2.67;;;;;;;15.97;76.01;91102.94;4946464;28;20034;-90
2021/09/11 08:15:23;;;;;;;5.43;2.72;;;;;;;16.04;76.53;91108.28;4959133;28;20077;-90
2021/09/11 08:17:49;;;;;;;4.28;2.70;;;;;;;16.14;75.49;91105.03;4946221;28;20033;-89
2021/09/11 08:20:15;;;;;;;4.70;2.78;;;;;;;16.17;72.05;91109.59;4962387;28;20134;-90
2021/09/11 08:22:41;;;;;;;3.83;2.63;;;;;;;16.21;73.16;91105.13;4962661;28;20022;-90
2021/09/11 08:25:07;;;;;;;8.18;2.85;;;;;;;16.41;72.14;91112.88;4978293;28;20033;-90
2021/09/11 08:27:32;;;;;;;4.88;2.53;;;;;;;16.20;72.80;91111.50;4977861;28;20034;-91
2021/09/11 08:29:58;;;;;;;5.40;2.88;;;;;;;16.38;72.85;91116.22;4962013;28;20022;-90
2021/09/11 08:32:23;;;;;;;3.95;2.60;;;;;;;16.56;72.17;91109.28;4961949;28;20058;-90
2021/09/11 08:34:52;;;;;;;5.45;3.22;;;;;;;16.78;73.40;91112.16;4962274;28;20029;-90
2021/09/11 08:37:17;;;;;;;6.82;3.72;;;;;;;16.93;71.21;91113.84;4953048;28;20033;-90
2021/09/11 08:39:43;;;;;;;6.35;3.60;;;;;;;16.77;71.18;91105.41;4945138;28;20031;-90
2021/09/11 08:42:09;;;;;;;6.85;3.53;;;;;;;16.85;72.49;91114.88;4962125;28;20022;-89
2021/09/11 08:44:34;;;;;;;6.78;3.40;;;;;;;16.76;71.44;91114.41;4978043;28;20454;-91
2021/09/11 08:47:00;;;;;;;7.80;3.47;;;;;;;16.86;69.13;91113.78;4962000;28;20038;-91
2021/09/11 08:49:25;;;;;;;7.50;4.10;;;;;;;16.84;70.61;91116.75;4945163;28;20023;-90
2021/09/11 08:51:51;;;;;;;8.32;3.83;;;;;;;16.57;70.46;91118.72;4966318;28;20027;-90
2021/09/11 08:54:19;;;;;;;5.30;3.30;;;;;;;16.91;69.21;91126.59;4942452;28;20035;-90
2021/09/11 08:56:46;;;;;;;5.97;3.47;;;;;;;17.02;70.59;91119.56;4942555;28;20058;-90
2021/09/11 08:59:15;;;;;;;5.53;3.63;;;;;;;17.20;69.20;91122.34;4942560;28;20022;-91
2021/09/11 09:01:40;;;;;;;5.63;3.30;;;;;;;17.17;68.23;91118.59;4958415;28;20042;-92
2021/09/11 09:04:08;;;;;;;5.30;3.35;;;;;;;17.24;67.83;91125.00;4958566;28;20478;-91
2021/09/11 09:06:34;;;;;;;5.65;3.10;;;;;;;17.11;68.59;91130.56;4942551;28;20034;-91
2021/09/11 09:09:12;;;;;;;6.65;3.40;;;;;;;16.80;69.93;91125.72;4942435;28;20018;-90
2021/09/11 09:11:39;;;;;;;7.53;3.08;;;;;;;16.66;70.62;91126.31;4942543;28;20105;-90
2021/09/11 09:14:04;;;;;;;6.72;3.60;;;;;;;16.82;66.94;91128.75;4958103;28;20026;-90
2021/09/11 09:16:36;;;;;;;6.38;3.60;;;;;;;17.05;66.10;91124.09;4958590;28;20038;-90
2021/09/11 09:19:10;;;;;;;5.90;3.55;;;;;;;16.86;66.27;91130.31;4957918;28;20033;-90
2021/09/11 09:21:36;;;;;;;8.15;3.85;;;;;;;16.62;65.58;91131.53;4974586;28;20034;-90
2021/09/11 09:24:03;;;;;;;5.65;3.72;;;;;;;16.87;66.05;91125.81;4961492;28;20026;-91
2021/09/11 09:26:29;;;;;;;8.25;5.07;;;;;;;16.86;66.09;91124.31;4954867;28;20027;-91
2021/09/11 09:29:02;;;;;;;6.72;4.65;;;;;;;16.90;66.32;91133.75;4965297;28;20498;-91
2021/09/11 09:31:27;;;;;;;5.97;3.85;;;;;;;16.71;66.61;91137.28;4964643;28;20486;-91
2021/09/11 09:33:53;;;;;;;7.68;4.47;;;;;;;16.88;67.65;91132.56;4942139;28;20030;-91
2021/09/11 09:36:18;;;;;;;7.30;4.28;;;;;;;17.02;67.17;91135.34;4958279;28;20086;-92
2021/09/11 09:38:44;;;;;;;7.65;3.90;;;;;;;17.05;65.74;91132.00;4958824;28;20418;-91
2021/09/11 09:41:10;;;;;;;6.38;3.50;;;;;;;17.07;66.66;91124.50;4977715;28;20041;-91
2021/09/11 09:43:42;;;;;;;6.55;3.70;;;;;;;17.31;66.01;91117.16;4966770;28;20031;-91
2021/09/11 09:46:10;;;;;;;5.47;3.58;;;;;;;17.62;67.71;91121.94;4942696;28;20061;-90
2021/09/11 09:48:36;;;;;;;7.75;3.88;;;;;;;17.51;64.42;91115.81;4941876;28;20031;-91
2021/09/11 09:51:12;;;;;;;5.70;3.00;;;;;;;17.27;65.11;91114.50;4952673;28;20035;-92
2021/09/11 09:53:38;;;;;;;5.10;2.80;;;;;;;16.83;66.59;91106.59;4963112;28;20030;-90
2021/09/11 09:56:04;;;;;;;5.68;2.42;;;;;;;16.54;67.30;91111.53;4957424;28;20026;-91
2021/09/11 09:58:30;;;;;;;4.95;2.60;;;;;;;16.69;66.25;91113.19;4942039;28;20033;-90
2021/09/11 10:00:56;;;;;;;6.10;2.53;;;;;;;17.03;67.35;91118.44;4947875;28;20030;-92
2021/09/11 10:03:21;;;;;;;5.55;2.97;;;;;;;17.19;66.36;91105.03;4974093;28;20057;-90
2021/09/11 10:05:48;;;;;;;4.50;2.78;;;;;;;17.28;69.23;91102.88;4941410;28;20033;-91
2021/09/11 10:08:14;;;;;;;4.63;3.00;;;;;;;17.38;67.75;91101.41;4942576;28;20101;-90
2021/09/11 10:10:42;;;;;;;4.97;2.80;;;;;;;17.29;63.59;91098.34;4965255;28;20479;-91
2021/09/11 10:13:11;;;;;;;4.20;3.00;;;;;;;17.32;63.13;91095.75;4941739;28;20043;-91
2021/09/11 10:15:51;;;;;;;4.85;3.30;;;;;;;17.46;63.11;91092.47;4973831;28;20015;-91
2021/09/11 10:18:38;;;;;;;4.43;2.90;;;;;;;18.03;63.03;91097.38;4942423;28;20033;-91
2021/09/11 10:21:19;;;;;;;6.18;3.15;;;;;;;18.20;63.29;91088.78;4968604;28;20034;-92
2021/09/11 10:23:56;;;;;;;5.90;2.78;;;;;;;18.69;61.90;91084.03;4995745;28;20077;-91
2021/09/11 10:26:47;;;;;;;4.57;2.60;;;;;;;18.80;60.40;91084.88;4975284;28;20023;-91
2021/09/11 10:29:33;;;;;;;4.63;2.80;;;;;;;19.11;58.46;91086.78;4994112;28;20026;-90
2021/09/11 10:32:11;;;;;;;6.18;3.15;;;;;;;19.43;59.13;91093.22;4977073;28;20066;-89
2021/09/11 10:34:45;;;;;;;4.38;2.90;;;;;;;19.20;56.63;91090.97;4975341;28;20030;-89
2021/09/11 10:37:11;;;;;;;;;;;;;;;19.33;58.51;91086.84;4958021;28;20483;-90
2021/09/11 10:39:37;;;;;;;4.70;3.10;;;;;;;18.96;58.42;91087.16;4944892;28;19910;-91
2021/09/11 10:42:06;;;;;;;15.43;6.65;;;;;;;18.45;60.50;91080.22;4961804;28;20033;-93
2021/09/11 10:44:32;;;;;;;5.43;3.00;;;;;;;18.50;61.24;91082.50;4963562;28;20034;-92
2021/09/11 10:46:57;;;;;;;11.60;4.75;;;;;;;18.78;60.73;91076.56;4963759;28;20026;-93
2021/09/11 10:49:30;;;;;;;5.93;3.55;;;;;;;18.84;60.58;91069.81;4963519;28;20022;-91
2021/09/11 10:52:08;;;;;;;8.95;4.25;;;;;;;18.82;60.88;91072.03;4963282;28;20133;-91
2021/09/11 10:54:41;;;;;;;7.95;4.63;;;;;;;18.70;60.61;91067.09;4978085;28;20092;-90
2021/09/11 10:57:14;;;;;;;8.40;4.30;;;;;;;18.88;60.53;91070.56;4978325;28;20529;-91
2021/09/11 10:59:41;;;;;;;7.03;4.27;;;;;;;18.57;61.04;91066.69;4957421;28;20398;-92
2021/09/11 11:02:22;;;;;;;7.45;3.60;;;;;;;18.67;59.75;91067.84;4958080;28;20398;-91
2021/09/11 11:04:56;;;;;;;7.57;2.95;;;;;;;19.08;57.60;91069.06;4942320;28;20035;-92
2021/09/11 11:07:26;;;;;;;5.85;3.53;;;;;;;19.17;60.21;91070.59;4942028;28;20033;-91
2021/09/11 11:09:57;;;;;;;4.60;3.17;;;;;;;18.93;58.45;91078.09;4943176;28;20454;-92
2021/09/11 11:12:27;;;;;;;4.93;3.33;;;;;;;18.97;58.53;91078.09;4958305;28;20352;-93
2021/09/11 11:14:58;;;;;;;5.28;3.15;;;;;;;18.85;60.26;91072.06;4943087;28;20031;-92
2021/09/11 11:17:24;;;;;;;6.13;3.45;;;;;;;19.11;59.09;91065.66;4943745;28;20026;-91
2021/09/11 11:19:51;;;;;;;4.93;3.00;;;;;;;19.34;59.32;91069.84;4942896;28;20027;-91
2021/09/11 11:22:18;;;;;;;3.75;2.80;;;;;;;19.68;58.78;91072.09;4942815;28;20030;-91
2021/09/11 11:24:47;;;;;;;3.97;2.80;;;;;;;19.89;57.99;91069.41;4943729;28;20483;-94
2021/09/11 11:27:17;;;;;;;5.60;2.80;;;;;;;20.04;58.32;91062.97;4973945;28;20033;-94
2021/09/11 11:29:43;;;;;;;3.75;2.80;;;;;;;19.99;57.56;91063.34;4982518;28;20053;-92
2021/09/11 11:32:09;;;;;;;3.65;2.50;;;;;;;19.77;57.75;91064.53;4945386;28;20033;-92